Time;durP1;ratioP1;P1;durP2;ratioP2;P2;SDS_P1;SDS_P2;PMS_P1;PMS_P2;Temp;Humidity;BMP_temperature;BMP_pressure;BME280_temperature;BME280_humidity;BME280_pressure;Samples;Min_cycle;Max_cycle;Signal;HPM_P1;HPM_P2
2023/07/06 00:02:13;;;;;;;3.53;2.00;;;;;;;;;;5014378;28;20234;-81
2023/07/06 00:04:40;;;;;;;5.27;2.73;;;;;;;;;;5014233;28;20755;-81
2023/07/06 00:07:07;;;;;;;2.97;2.30;;;;;;;;;;5014250;28;20203;-81
2023/07/06 00:09:35;;;;;;;3.50;2.10;;;;;;;;;;5013701;28;20262;-81
2023/07/06 00:12:02;;;;;;;5.20;2.50;;;;;;;;;;5014217;28;20279;-81
2023/07/06 00:14:31;;;;;;;5.20;2.60;;;;;;;;;;5013874;28;20234;-81
2023/07/06 00:17:08;;;;;;;3.53;2.17;;;;;;;;;;5014168;28;20235;-81
2023/07/06 00:19:35;;;;;;;2.63;2.27;;;;;;;;;;5013652;28;20231;-81
2023/07/06 00:22:02;;;;;;;3.77;2.33;;;;;;;;;;5014034;28;20696;-81
2023/07/06 00:24:29;;;;;;;2.33;2.13;;;;;;;;;;5013776;28;20611;-81
2023/07/06 00:26:56;;;;;;;3.17;2.20;;;;;;;;;;5013538;28;20203;-81
2023/07/06 00:29:23;;;;;;;3.77;2.30;;;;;;;;;;5013236;28;20250;-80
2023/07/06 00:31:53;;;;;;;2.33;2.13;;;;;;;;;;5013902;28;20579;-81
2023/07/06 00:34:21;;;;;;;2.97;2.17;;;;;;;;;;5013509;28;20308;-81
2023/07/06 00:36:48;;;;;;;3.20;2.40;;;;;;;;;;5013964;28;20243;-80
2023/07/06 00:39:15;;;;;;;3.33;2.40;;;;;;;;;;5013015;28;20236;-81
2023/07/06 00:41:43;;;;;;;3.70;2.00;;;;;;;;;;5013690;28;20231;-81
2023/07/06 00:44:39;;;;;;;2.73;2.53;;;;;;;;;;5013182;28;20235;-81
2023/07/06 00:47:09;;;;;;;4.27;2.67;;;;;;;;;;5012796;28;20218;-81
2023/07/06 00:49:36;;;;;;;3.40;2.20;;;;;;;;;;5013008;28;20246;-81
2023/07/06 00:52:03;;;;;;;3.40;2.10;;;;;;;;;;5013771;28;20686;-81
2023/07/06 00:54:31;;;;;;;3.90;2.20;;;;;;;;;;5013071;28;20235;-81
2023/07/06 00:57:02;;;;;;;2.47;2.20;;;;;;;;;;5013447;28;20662;-81
2023/07/06 00:59:29;;;;;;;3.10;2.40;;;;;;;;;;5015434;28;20235;-81
2023/07/06 01:01:59;;;;;;;2.53;2.33;;;;;;;;;;5033290;28;20222;-81
2023/07/06 01:04:27;;;;;;;2.50;2.30;;;;;;;;;;5022538;28;20775;-81
2023/07/06 01:06:56;;;;;;;4.53;2.37;;;;;;;;;;5011117;28;20211;-81
2023/07/06 01:09:23;;;;;;;2.40;2.20;;;;;;;;;;5032544;28;20239;-81
2023/07/06 01:11:50;;;;;;;3.30;2.30;;;;;;;;;;5025479;28;20220;-80
2023/07/06 01:14:17;;;;;;;3.73;2.40;;;;;;;;;;5012708;28;20238;-82
2023/07/06 01:16:45;;;;;;;2.90;2.23;;;;;;;;;;5013113;28;20210;-81
2023/07/06 01:19:20;;;;;;;3.50;2.20;;;;;;;;;;5012501;28;20243;-81
2023/07/06 01:21:51;;;;;;;4.67;2.40;;;;;;;;;;5013065;28;20243;-81
2023/07/06 01:24:32;;;;;;;3.20;2.23;;;;;;;;;;5022057;28;20237;-80
2023/07/06 01:27:09;;;;;;;2.40;2.20;;;;;;;;;;5032711;28;20207;-81
2023/07/06 01:29:46;;;;;;;4.83;2.50;;;;;;;;;;5031896;28;20245;-81
2023/07/06 01:32:16;;;;;;;3.10;2.60;;;;;;;;;;5032495;28;20203;-81
2023/07/06 01:34:47;;;;;;;3.67;2.33;;;;;;;;;;5032306;28;20242;-81
2023/07/06 01:37:16;;;;;;;4.20;2.43;;;;;;;;;;5032297;28;20226;-81
2023/07/06 01:39:43;;;;;;;4.07;2.30;;;;;;;;;;5031664;28;20238;-81
2023/07/06 01:42:29;;;;;;;2.77;2.00;;;;;;;;;;5032188;28;20218;-81
2023/07/06 01:44:58;;;;;;;4.20;2.00;;;;;;;;;;5031831;28;20926;-81
2023/07/06 01:47:27;;;;;;;4.33;2.30;;;;;;;;;;5032242;28;20242;-81
2023/07/06 01:49:54;;;;;;;3.57;2.10;;;;;;;;;;5031667;28;20782;-81
2023/07/06 01:52:25;;;;;;;2.67;2.10;;;;;;;;;;5032097;28;20213;-81
2023/07/06 01:54:58;;;;;;;3.97;2.43;;;;;;;;;;5031134;28;20234;-81
2023/07/06 01:57:27;;;;;;;2.63;2.43;;;;;;;;;;5031985;28;20350;-81
2023/07/06 01:59:56;;;;;;;4.03;2.40;;;;;;;;;;5031413;28;20713;-81
2023/07/06 02:02:24;;;;;;;2.80;2.27;;;;;;;;;;5031890;28;20210;-80
2023/07/06 02:04:52;;;;;;;2.73;2.33;;;;;;;;;;5031588;28;20234;-81
2023/07/06 02:07:21;;;;;;;6.00;2.43;;;;;;;;;;5031797;28;20198;-81
2023/07/06 02:09:49;;;;;;;3.40;2.20;;;;;;;;;;5031355;28;20255;-81
2023/07/06 02:12:16;;;;;;;2.30;2.10;;;;;;;;;;5031911;28;20206;-81
2023/07/06 02:14:43;;;;;;;2.77;2.30;;;;;;;;;;5031372;28;20235;-80
2023/07/06 02:17:11;;;;;;;2.70;2.23;;;;;;;;;;5031702;28;20214;-81
2023/07/06 02:19:38;;;;;;;2.50;2.30;;;;;;;;;;5031073;28;20616;-81
2023/07/06 02:22:08;;;;;;;3.63;2.30;;;;;;;;;;5031675;28;20207;-80
2023/07/06 02:24:35;;;;;;;2.77;2.13;;;;;;;;;;5031323;28;20262;-80
2023/07/06 02:27:02;;;;;;;2.33;2.13;;;;;;;;;;5031645;28;20214;-81
2023/07/06 02:29:29;;;;;;;2.47;2.20;;;;;;;;;;5030791;28;20237;-81
2023/07/06 02:31:56;;;;;;;2.27;2.10;;;;;;;;;;5031613;28;20646;-81
2023/07/06 02:34:25;;;;;;;2.30;2.07;;;;;;;;;;5031052;28;20269;-81
2023/07/06 02:36:52;;;;;;;2.20;1.77;;;;;;;;;;5031751;28;20202;-81
2023/07/06 02:39:24;;;;;;;3.40;2.07;;;;;;;;;;5030580;28;20245;-81
2023/07/06 02:41:52;;;;;;;3.03;2.47;;;;;;;;;;5031437;28;20242;-81
2023/07/06 02:44:20;;;;;;;3.47;2.33;;;;;;;;;;5030894;28;20245;-81
2023/07/06 02:46:47;;;;;;;2.10;1.90;;;;;;;;;;5031386;28;20245;-81
2023/07/06 02:49:15;;;;;;;2.87;2.30;;;;;;;;;;5030602;28;20234;-81
2023/07/06 02:51:43;;;;;;;2.67;2.33;;;;;;;;;;5036541;28;20226;-81
2023/07/06 02:54:13;;;;;;;4.33;2.30;;;;;;;;;;5037409;28;20230;-81
2023/07/06 02:56:42;;;;;;;2.73;2.20;;;;;;;;;;5038098;28;20250;-81
2023/07/06 02:59:09;;;;;;;2.27;2.07;;;;;;;;;;5037053;28;20234;-81
2023/07/06 03:01:37;;;;;;;2.70;2.30;;;;;;;;;;5018942;28;20254;-81
2023/07/06 03:04:09;;;;;;;2.43;2.23;;;;;;;;;;5017697;28;20245;-81
2023/07/06 03:06:36;;;;;;;3.77;2.23;;;;;;;;;;5018090;28;20285;-81
2023/07/06 03:09:03;;;;;;;2.60;2.30;;;;;;;;;;5017331;28;20235;-81
2023/07/06 03:11:30;;;;;;;3.77;2.43;;;;;;;;;;5017894;28;20603;-81
2023/07/06 03:13:59;;;;;;;2.83;2.17;;;;;;;;;;5017542;28;20249;-81
2023/07/06 03:16:27;;;;;;;3.87;2.57;;;;;;;;;;5017947;28;20211;-81
2023/07/06 03:18:54;;;;;;;3.27;2.50;;;;;;;;;;5017355;28;20242;-81
2023/07/06 03:21:21;;;;;;;4.27;2.67;;;;;;;;;;5017701;28;20234;-81
2023/07/06 03:23:49;;;;;;;3.07;2.27;;;;;;;;;;5017706;28;20239;-80
2023/07/06 03:26:16;;;;;;;3.10;2.80;;;;;;;;;;5017804;28;20661;-81
2023/07/06 03:28:43;;;;;;;4.47;2.73;;;;;;;;;;5017260;28;20239;-81
2023/07/06 03:31:14;;;;;;;2.47;2.20;;;;;;;;;;5017721;28;20234;-81
2023/07/06 03:33:41;;;;;;;2.53;2.33;;;;;;;;;;5017656;28;20235;-81
2023/07/06 03:36:08;;;;;;;3.10;2.37;;;;;;;;;;5017946;28;20207;-81
2023/07/06 03:38:35;;;;;;;3.47;3.13;;;;;;;;;;5017340;28;20235;-81
2023/07/06 03:41:04;;;;;;;5.47;2.70;;;;;;;;;;5018426;28;20277;-91
2023/07/06 03:43:31;;;;;;;4.27;2.40;;;;;;;;;;5020538;28;20263;-91
2023/07/06 03:45:59;;;;;;;7.10;3.00;;;;;;;;;;5021572;28;20207;-91
2023/07/06 03:48:27;;;;;;;2.87;2.20;;;;;;;;;;5020619;28;20318;-91
2023/07/06 03:50:54;;;;;;;5.57;2.53;;;;;;;;;;5021210;28;20231;-91
2023/07/06 03:53:22;;;;;;;2.70;2.50;;;;;;;;;;5020816;28;20241;-91
2023/07/06 03:55:49;;;;;;;3.20;2.90;;;;;;;;;;5020120;28;20218;-89
2023/07/06 03:58:20;;;;;;;6.07;2.50;;;;;;;;;;5019444;28;20235;-89
2023/07/06 04:00:48;;;;;;;7.37;2.47;;;;;;;;;;5020105;28;20660;-89
2023/07/06 04:03:15;;;;;;;3.37;2.53;;;;;;;;;;5015486;28;20258;-90
2023/07/06 04:05:47;;;;;;;3.60;2.57;;;;;;;;;;5016897;28;20211;-89
2023/07/06 04:08:16;;;;;;;3.13;2.23;;;;;;;;;;5016717;28;20289;-90
2023/07/06 04:10:43;;;;;;;7.37;2.77;;;;;;;;;;5016506;28;20227;-89
2023/07/06 04:13:11;;;;;;;2.90;2.57;;;;;;;;;;5016079;28;20250;-88
2023/07/06 04:15:39;;;;;;;2.83;2.27;;;;;;;;;;5016633;28;20577;-88
2023/07/06 04:18:06;;;;;;;4.07;2.33;;;;;;;;;;5015149;28;20285;-89
2023/07/06 04:20:35;;;;;;;2.90;2.30;;;;;;;;;;5015198;28;20235;-89
2023/07/06 04:23:03;;;;;;;4.23;2.40;;;;;;;;;;5014451;28;20259;-88
2023/07/06 04:25:32;;;;;;;3.67;2.80;;;;;;;;;;5014420;28;20207;-89
2023/07/06 04:28:02;;;;;;;3.37;2.23;;;;;;;;;;5014676;28;20689;-88
2023/07/06 04:30:33;;;;;;;5.67;3.00;;;;;;;;;;5015740;28;20223;-89
2023/07/06 04:33:00;;;;;;;3.90;2.50;;;;;;;;;;5014942;28;20230;-88
2023/07/06 04:35:27;;;;;;;2.60;2.40;;;;;;;;;;5015898;28;20207;-89
2023/07/06 04:37:55;;;;;;;3.40;2.50;;;;;;;;;;5015764;28;20571;-88
2023/07/06 04:40:26;;;;;;;2.70;2.50;;;;;;;;;;5016244;28;20231;-89
2023/07/06 04:42:53;;;;;;;2.60;2.40;;;;;;;;;;5016117;28;20211;-88
2023/07/06 04:45:21;;;;;;;2.60;2.33;;;;;;;;;;5015463;28;20239;-89
2023/07/06 04:47:51;;;;;;;3.97;2.43;;;;;;;;;;5015051;28;20215;-89
2023/07/06 04:50:22;;;;;;;2.83;2.50;;;;;;;;;;5015272;28;20258;-89
2023/07/06 04:52:51;;;;;;;3.23;2.93;;;;;;;;;;5015939;28;20206;-89
2023/07/06 04:55:22;;;;;;;3.50;2.90;;;;;;;;;;5015622;28;20574;-89
2023/07/06 04:57:52;;;;;;;4.60;3.23;;;;;;;;;;5015133;28;20991;-89
2023/07/06 05:00:24;;;;;;;3.90;2.80;;;;;;;;;;5025316;28;20227;-89
2023/07/06 05:02:51;;;;;;;4.93;3.03;;;;;;;;;;5034939;28;20637;-89
2023/07/06 05:05:19;;;;;;;4.70;3.07;;;;;;;;;;5034963;28;20234;-88
2023/07/06 05:07:49;;;;;;;2.80;2.60;;;;;;;;;;5034362;28;20215;-89
2023/07/06 05:10:17;;;;;;;2.73;2.50;;;;;;;;;;5035240;28;20230;-88
2023/07/06 05:12:44;;;;;;;3.77;2.87;;;;;;;;;;5033461;28;20253;-88
2023/07/06 05:15:14;;;;;;;3.33;2.63;;;;;;;;;;5033474;28;20214;-88
2023/07/06 05:17:41;;;;;;;3.37;2.50;;;;;;;;;;5033525;28;20223;-88
2023/07/06 05:20:10;;;;;;;3.63;2.70;;;;;;;;;;5033955;28;20227;-88
2023/07/06 05:22:39;;;;;;;3.03;2.70;;;;;;;;;;5033667;28;20303;-87
2023/07/06 05:25:06;;;;;;;5.97;3.40;;;;;;;;;;5034106;28;20202;-88
2023/07/06 05:27:34;;;;;;;2.90;2.70;;;;;;;;;;5033722;28;20210;-88
2023/07/06 05:30:01;;;;;;;4.03;2.93;;;;;;;;;;5032977;28;20254;-88
2023/07/06 05:32:29;;;;;;;3.00;2.80;;;;;;;;;;5033360;28;20207;-88
2023/07/06 05:34:56;;;;;;;4.00;2.80;;;;;;;;;;5032750;28;20234;-88
2023/07/06 05:37:23;;;;;;;6.77;3.00;;;;;;;;;;5034316;28;20206;-88
2023/07/06 05:39:50;;;;;;;3.27;2.97;;;;;;;;;;5032808;28;20238;-88
2023/07/06 05:42:18;;;;;;;7.53;2.80;;;;;;;;;;5034037;28;20222;-88
2023/07/06 05:44:45;;;;;;;3.37;3.03;;;;;;;;;;5033112;28;20511;-88
2023/07/06 05:47:12;;;;;;;3.93;2.77;;;;;;;;;;5033396;28;20207;-88
2023/07/06 05:49:41;;;;;;;3.50;2.70;;;;;;;;;;5033034;28;20268;-88
2023/07/06 05:52:08;;;;;;;4.47;2.97;;;;;;;;;;5033396;28;20207;-89
2023/07/06 05:54:35;;;;;;;3.03;2.57;;;;;;;;;;5033098;28;20607;-88
2023/07/06 05:57:03;;;;;;;5.13;2.90;;;;;;;;;;5033339;28;20221;-88
2023/07/06 05:59:30;;;;;;;3.20;2.67;;;;;;;;;;5030794;28;20239;-89
2023/07/06 06:01:58;;;;;;;3.00;2.70;;;;;;;;;;5013986;28;20207;-88
2023/07/06 06:04:26;;;;;;;3.27;2.67;;;;;;;;;;5013598;28;20259;-88
2023/07/06 06:06:56;;;;;;;3.70;2.67;;;;;;;;;;5013871;28;20207;-88
2023/07/06 06:09:24;;;;;;;3.43;2.83;;;;;;;;;;5012979;28;20234;-89
2023/07/06 06:11:51;;;;;;;3.63;2.67;;;;;;;;;;5017928;28;20231;-89
2023/07/06 06:14:19;;;;;;;5.07;2.57;;;;;;;;;;5013914;28;20235;-88
2023/07/06 06:16:47;;;;;;;2.30;2.10;;;;;;;;;;5014492;28;20218;-89
2023/07/06 06:19:14;;;;;;;5.10;2.03;;;;;;;;;;5015203;28;20313;-87
2023/07/06 06:21:41;;;;;;;2.17;1.93;;;;;;;;;;5018657;28;20227;-88
2023/07/06 06:24:11;;;;;;;3.47;1.87;;;;;;;;;;5013935;28;20239;-88
2023/07/06 06:26:42;;;;;;;2.50;1.70;;;;;;;;;;5014253;28;20302;-88
2023/07/06 06:29:10;;;;;;;1.83;1.70;;;;;;;;;;5013555;28;20242;-88
2023/07/06 06:31:37;;;;;;;2.67;1.80;;;;;;;;;;5013551;28;20295;-88
2023/07/06 06:34:04;;;;;;;3.43;2.03;;;;;;;;;;5012897;28;20234;-87
2023/07/06 06:36:31;;;;;;;3.40;1.90;;;;;;;;;;5013075;28;20207;-87
2023/07/06 06:38:59;;;;;;;3.97;1.83;;;;;;;;;;5012115;28;20235;-88
2023/07/06 06:41:28;;;;;;;2.45;1.80;;;;;;;;;;5012498;28;20250;-87
2023/07/06 06:43:56;;;;;;;2.55;2.00;;;;;;;;;;5012890;28;20701;-88
2023/07/06 06:46:24;;;;;;;3.25;1.80;;;;;;;;;;5013685;28;20211;-88
2023/07/06 06:48:52;;;;;;;2.97;1.80;;;;;;;;;;5013134;28;20604;-88
2023/07/06 06:51:19;;;;;;;2.35;1.52;;;;;;;;;;5013819;28;20725;-89
2023/07/06 06:53:46;;;;;;;2.03;1.67;;;;;;;;;;5012956;28;20231;-89
2023/07/06 06:56:13;;;;;;;1.80;1.30;;;;;;;;;;5014103;28;20688;-88
2023/07/06 06:58:42;;;;;;;1.90;1.55;;;;;;;;;;5012971;28;20747;-88
2023/07/06 07:01:10;;;;;;;2.08;1.50;;;;;;;;;;5028132;28;20230;-89
2023/07/06 07:03:37;;;;;;;2.80;1.65;;;;;;;;;;5033063;28;20245;-90
2023/07/06 07:06:11;;;;;;;4.03;1.95;;;;;;;;;;5034032;28;20207;-89
2023/07/06 07:08:39;;;;;;;4.50;2.17;;;;;;;;;;5032987;28;20272;-88
2023/07/06 07:11:06;;;;;;;3.55;1.60;;;;;;;;;;5032994;28;20261;-89
2023/07/06 07:13:33;;;;;;;2.55;1.50;;;;;;;;;;5032612;28;20234;-89
2023/07/06 07:16:01;;;;;;;2.95;1.75;;;;;;;;;;5033935;28;20238;-88
2023/07/06 07:18:28;;;;;;;3.65;2.25;;;;;;;;;;5032336;28;20234;-89
2023/07/06 07:20:56;;;;;;;2.00;1.75;;;;;;;;;;5033075;28;20237;-89
2023/07/06 07:23:23;;;;;;;3.13;1.90;;;;;;;;;;5032569;28;20285;-89
2023/07/06 07:25:50;;;;;;;2.58;1.48;;;;;;;;;;5033087;28;20230;-88
2023/07/06 07:28:17;;;;;;;2.53;1.45;;;;;;;;;;5032339;28;20730;-89
2023/07/06 07:30:46;;;;;;;2.95;1.15;;;;;;;;;;5033454;28;20227;-88
2023/07/06 07:33:14;;;;;;;3.30;1.73;;;;;;;;;;5033025;28;20235;-89
2023/07/06 07:35:43;;;;;;;3.10;1.80;;;;;;;;;;5033197;28;20202;-88
2023/07/06 07:38:10;;;;;;;6.60;2.10;;;;;;;;;;5034639;28;20227;-88
2023/07/06 07:40:37;;;;;;;1.95;1.05;;;;;;;;;;5036975;28;20234;-89
2023/07/06 07:43:05;;;;;;;2.20;1.85;;;;;;;;;;5035223;28;20227;-88
2023/07/06 07:45:32;;;;;;;3.25;1.58;;;;;;;;;;5035532;28;20337;-88
2023/07/06 07:47:59;;;;;;;2.70;1.73;;;;;;;;;;5034958;28;20238;-88
2023/07/06 07:50:28;;;;;;;2.30;1.10;;;;;;;;;;5036199;28;20231;-89
2023/07/06 07:52:55;;;;;;;2.25;1.08;;;;;;;;;;5035402;28;20289;-88
2023/07/06 07:55:22;;;;;;;4.15;1.15;;;;;;;;;;5036736;28;20701;-88
2023/07/06 07:57:49;;;;;;;6.28;1.50;;;;;;;;;;5037454;28;20202;-88
2023/07/06 08:00:16;;;;;;;1.23;1.13;;;;;;;;;;5036409;28;20231;-89
2023/07/06 08:02:45;;;;;;;2.20;1.25;;;;;;;;;;5035148;28;20699;-88
2023/07/06 08:05:13;;;;;;;1.45;1.35;;;;;;;;;;5036221;28;20301;-89
2023/07/06 08:07:45;;;;;;;4.45;1.40;;;;;;;;;;5034267;28;20207;-88
2023/07/06 08:10:12;;;;;;;2.45;1.60;;;;;;;;;;5036018;28;20317;-89
2023/07/06 08:12:39;;;;;;;2.60;1.63;;;;;;;;;;5036009;28;20281;-87
2023/07/06 08:15:07;;;;;;;2.28;1.52;;;;;;;;;;5035810;28;20629;-89
2023/07/06 08:17:35;;;;;;;1.55;1.13;;;;;;;;;;5036194;28;20673;-89
2023/07/06 08:20:06;;;;;;;2.97;1.50;;;;;;;;;;5035648;28;20227;-89
2023/07/06 08:22:33;;;;;;;2.67;1.67;;;;;;;;;;5036209;28;20693;-87
2023/07/06 08:25:01;;;;;;;3.13;1.38;;;;;;;;;;5035858;28;20258;-88
2023/07/06 08:27:30;;;;;;;4.15;1.50;;;;;;;;;;5034844;28;20211;-89
2023/07/06 08:29:58;;;;;;;3.08;1.33;;;;;;;;;;5034464;28;20234;-89
2023/07/06 08:32:25;;;;;;;1.92;1.35;;;;;;;;;;5035746;28;20215;-89
2023/07/06 08:34:53;;;;;;;3.42;1.58;;;;;;;;;;5035052;28;20724;-88
2023/07/06 08:37:21;;;;;;;1.45;1.25;;;;;;;;;;5036099;28;20225;-89
2023/07/06 08:39:48;;;;;;;2.60;1.40;;;;;;;;;;5034587;28;20231;-89
2023/07/06 08:42:21;;;;;;;4.20;1.63;;;;;;;;;;5035267;28;20214;-89
2023/07/06 08:44:50;;;;;;;2.13;1.38;;;;;;;;;;5035048;28;20245;-89
2023/07/06 08:47:18;;;;;;;2.30;1.38;;;;;;;;;;5034948;28;20653;-89
2023/07/06 08:49:45;;;;;;;2.40;1.40;;;;;;;;;;5032507;28;20246;-87
2023/07/06 08:52:14;;;;;;;3.50;1.55;;;;;;;;;;5034602;28;20294;-90
2023/07/06 08:54:41;;;;;;;3.45;1.75;;;;;;;;;;5034179;28;20238;-89
2023/07/06 08:57:14;;;;;;;3.22;1.50;;;;;;;;;;5035192;28;20210;-88
2023/07/06 08:59:43;;;;;;;5.20;1.77;;;;;;;;;;5030390;28;20711;-89
2023/07/06 09:02:16;;;;;;;3.67;1.50;;;;;;;;;;5015518;28;20293;-89
2023/07/06 09:04:43;;;;;;;3.40;1.95;;;;;;;;;;5014782;28;20709;-88
2023/07/06 09:07:13;;;;;;;2.70;1.52;;;;;;;;;;5014662;28;20207;-86
2023/07/06 09:09:41;;;;;;;1.30;1.20;;;;;;;;;;5013389;28;20236;-89
2023/07/06 09:12:13;;;;;;;2.17;1.40;;;;;;;;;;5014242;28;20218;-88
2023/07/06 09:14:43;;;;;;;2.58;1.48;;;;;;;;;;5013272;28;20780;-87
2023/07/06 09:17:16;;;;;;;2.42;1.40;;;;;;;;;;5014501;28;20338;-89
2023/07/06 09:19:43;;;;;;;2.30;1.65;;;;;;;;;;5015294;28;20617;-87
2023/07/06 09:22:11;;;;;;;1.50;1.30;;;;;;;;;;5015820;28;20207;-89
2023/07/06 09:24:38;;;;;;;2.13;1.40;;;;;;;;;;5015387;28;20239;-90
2023/07/06 09:27:10;;;;;;;2.78;1.50;;;;;;;;;;5015592;28;20211;-90
2023/07/06 09:29:37;;;;;;;2.38;1.33;;;;;;;;;;5015210;28;20756;-91
2023/07/06 09:32:16;;;;;;;2.38;1.45;;;;;;;;;;5015985;28;20211;-90
2023/07/06 09:34:44;;;;;;;3.90;1.77;;;;;;;;;;5018739;28;20257;-90
2023/07/06 09:37:12;;;;;;;2.80;1.67;;;;;;;;;;5015461;28;20591;-89
2023/07/06 09:39:39;;;;;;;2.83;1.30;;;;;;;;;;5015708;28;20231;-88
2023/07/06 09:42:11;;;;;;;2.05;1.40;;;;;;;;;;5048567;22;20226;-88
2023/07/06 09:44:38;;;;;;;2.05;1.55;;;;;;;;;;5040243;28;20230;-88
2023/07/06 09:47:11;;;;;;;2.70;1.83;;;;;;;;;;5048934;28;20229;-88
2023/07/06 09:49:42;;;;;;;2.28;1.58;;;;;;;;;;5040177;28;20222;-88
2023/07/06 09:52:12;;;;;;;1.77;1.55;;;;;;;;;;5042864;28;20233;-88
2023/07/06 09:54:42;;;;;;;2.15;1.40;;;;;;;;;;5043660;28;20241;-88
2023/07/06 09:57:11;;;;;;;3.70;1.67;;;;;;;;;;5041449;28;20293;-88
2023/07/06 09:59:39;;;;;;;1.95;1.33;;;;;;;;;;5039326;28;20254;-88
2023/07/06 10:02:16;;;;;;;2.10;1.55;;;;;;;;;;5041763;28;20233;-89
2023/07/06 10:04:51;;;;;;;2.10;1.55;;;;;;;;;;5043322;28;20305;-88
2023/07/06 10:07:23;;;;;;;3.88;1.58;;;;;;;;;;5032474;28;20213;-88
2023/07/06 10:09:55;;;;;;;1.65;1.55;;;;;;;;;;5039632;28;20234;-89
2023/07/06 10:12:26;;;;;;;2.58;1.50;;;;;;;;;;5032840;28;20237;-90
2023/07/06 10:14:54;;;;;;;2.95;1.40;;;;;;;;;;5039991;28;20234;-89
2023/07/06 10:17:34;;;;;;;1.70;1.45;;;;;;;;;;5043632;28;20672;-89
2023/07/06 10:20:06;;;;;;;2.88;1.50;;;;;;;;;;5041824;28;20236;-90
2023/07/06 10:22:38;;;;;;;1.80;1.45;;;;;;;;;;5040058;28;20651;-90
2023/07/06 10:25:12;;;;;;;2.22;1.70;;;;;;;;;;5041426;28;20230;-89
2023/07/06 10:27:47;;;;;;;2.17;1.58;;;;;;;;;;5042986;28;20780;-89
2023/07/06 10:30:20;;;;;;;3.55;1.38;;;;;;;;;;5040137;28;20198;-89
2023/07/06 10:32:51;;;;;;;1.92;1.40;;;;;;;;;;5039759;28;20257;-90
2023/07/06 10:35:21;;;;;;;2.08;1.42;;;;;;;;;;5032096;28;20211;-90
2023/07/06 10:37:48;;;;;;;2.83;1.23;;;;;;;;;;5039657;28;20562;-88
2023/07/06 10:40:23;;;;;;;3.25;1.48;;;;;;;;;;5042823;28;20229;-90
2023/07/06 10:43:08;;;;;;;1.77;1.52;;;;;;;;;;5042681;28;20253;-89
2023/07/06 10:45:43;;;;;;;1.52;1.30;;;;;;;;;;5034940;28;20708;-89
2023/07/06 10:48:14;;;;;;;3.00;1.60;;;;;;;;;;5047460;28;20616;-89
2023/07/06 10:50:49;;;;;;;1.92;1.48;;;;;;;;;;5046492;28;20272;-89
2023/07/06 10:53:21;;;;;;;1.75;1.40;;;;;;;;;;5028192;28;20316;-89
2023/07/06 10:55:58;;;;;;;1.95;1.63;;;;;;;;;;5054572;28;20722;-89
2023/07/06 10:58:27;;;;;;;2.38;1.60;;;;;;;;;;5041465;28;20229;-90
2023/07/06 11:00:55;;;;;;;2.00;1.70;;;;;;;;;;5056377;28;20229;-89
2023/07/06 11:03:23;;;;;;;2.05;1.55;;;;;;;;;;5043514;28;20222;-88
2023/07/06 11:05:56;;;;;;;2.17;1.40;;;;;;;;;;5045374;28;20206;-88
2023/07/06 11:08:45;;;;;;;1.52;1.23;;;;;;;;;;5042034;28;20313;-89
2023/07/06 11:11:19;;;;;;;3.92;1.67;;;;;;;;;;5017398;28;20821;-89
2023/07/06 11:13:51;;;;;;;2.97;1.67;;;;;;;;;;5048136;28;20274;-89
2023/07/06 11:16:21;;;;;;;2.05;1.70;;;;;;;;;;5045425;28;21003;-89
2023/07/06 11:18:52;;;;;;;3.17;1.55;;;;;;;;;;5043949;28;20230;-89
2023/07/06 11:21:27;;;;;;;2.42;1.33;;;;;;;;;;5047350;28;20308;-89
2023/07/06 11:23:56;;;;;;;1.95;1.60;;;;;;;;;;5046709;28;20241;-90
2023/07/06 11:26:34;;;;;;;2.38;1.40;;;;;;;;;;5043139;28;20206;-89
2023/07/06 11:29:01;;;;;;;2.50;1.20;;;;;;;;;;5043557;28;20230;-89
2023/07/06 11:31:37;;;;;;;2.00;1.40;;;;;;;;;;5050823;28;20226;-89
2023/07/06 11:34:08;;;;;;;1.60;1.23;;;;;;;;;;5044274;28;20241;-89
2023/07/06 11:36:41;;;;;;;3.38;1.30;;;;;;;;;;5047565;28;20206;-89
2023/07/06 11:39:13;;;;;;;2.40;1.55;;;;;;;;;;5037971;28;20230;-89
2023/07/06 11:41:43;;;;;;;2.63;1.70;;;;;;;;;;5048022;28;20692;-90
2023/07/06 11:44:19;;;;;;;2.05;1.42;;;;;;;;;;5039620;28;20761;-89
2023/07/06 11:46:55;;;;;;;2.65;1.50;;;;;;;;;;5048701;28;20206;-89
2023/07/06 11:49:35;;;;;;;1.55;1.45;;;;;;;;;;5046272;28;20233;-89
2023/07/06 11:52:05;;;;;;;1.63;1.52;;;;;;;;;;5045876;28;20233;-89
2023/07/06 11:54:48;;;;;;;1.75;1.55;;;;;;;;;;5045005;28;20637;-90
2023/07/06 11:57:25;;;;;;;2.15;1.88;;;;;;;;;;5044547;28;20217;-90
2023/07/06 12:00:09;;;;;;;2.70;1.77;;;;;;;;;;5047328;28;20639;-90
2023/07/06 12:02:37;;;;;;;1.40;1.30;;;;;;;;;;5036308;28;20284;-87
2023/07/06 12:05:04;;;;;;;1.88;1.58;;;;;;;;;;5044461;28;20214;-89
2023/07/06 12:07:33;;;;;;;2.90;1.50;;;;;;;;;;5041809;28;20257;-89
2023/07/06 12:10:02;;;;;;;3.22;1.63;;;;;;;;;;5042248;28;20261;-89
2023/07/06 12:12:30;;;;;;;3.50;1.42;;;;;;;;;;5046458;28;20735;-89
2023/07/06 12:14:57;;;;;;;2.50;1.35;;;;;;;;;;5045489;28;20233;-89
2023/07/06 12:17:24;;;;;;;1.75;1.55;;;;;;;;;;5045935;28;20210;-89
2023/07/06 12:19:57;;;;;;;2.75;1.73;;;;;;;;;;5045359;28;20233;-89
2023/07/06 12:22:24;;;;;;;3.42;1.40;;;;;;;;;;5046184;28;20289;-89
2023/07/06 12:24:54;;;;;;;1.40;1.30;;;;;;;;;;5045027;28;20229;-89
2023/07/06 12:27:21;;;;;;;2.55;1.75;;;;;;;;;;5042729;28;20229;-90
2023/07/06 12:29:48;;;;;;;1.50;1.40;;;;;;;;;;5048655;28;20751;-89
2023/07/06 12:32:17;;;;;;;1.92;1.63;;;;;;;;;;5043426;28;20222;-90
2023/07/06 12:34:45;;;;;;;4.28;1.65;;;;;;;;;;5041838;28;20230;-89
2023/07/06 12:37:13;;;;;;;1.38;1.27;;;;;;;;;;5050418;28;20252;-89
2023/07/06 12:39:42;;;;;;;3.45;1.85;;;;;;;;;;5041830;28;20235;-90
2023/07/06 12:42:12;;;;;;;4.15;1.90;;;;;;;;;;5043204;28;20233;-89
2023/07/06 12:44:39;;;;;;;2.38;1.58;;;;;;;;;;5045387;28;20230;-89
2023/07/06 12:47:20;;;;;;;1.60;1.30;;;;;;;;;;5045996;28;20211;-89
2023/07/06 12:49:49;;;;;;;2.05;1.33;;;;;;;;;;5039720;28;20237;-89
2023/07/06 12:52:17;;;;;;;2.65;1.50;;;;;;;;;;5044102;28;20227;-89
2023/07/06 12:54:52;;;;;;;1.58;1.15;;;;;;;;;;5044826;28;20237;-90
2023/07/06 12:57:23;;;;;;;2.65;1.77;;;;;;;;;;5038692;28;20297;-89
2023/07/06 12:59:52;;;;;;;2.30;1.75;;;;;;;;;;5046055;28;20258;-90
2023/07/06 13:02:20;;;;;;;2.65;1.48;;;;;;;;;;5042856;28;20222;-90
2023/07/06 13:04:47;;;;;;;1.45;1.35;;;;;;;;;;5042403;28;20715;-89
2023/07/06 13:07:16;;;;;;;2.88;1.40;;;;;;;;;;5044436;28;20670;-89
2023/07/06 13:09:44;;;;;;;1.58;1.42;;;;;;;;;;5046338;28;20284;-89
2023/07/06 13:12:18;;;;;;;1.67;1.58;;;;;;;;;;5046057;28;20219;-89
2023/07/06 13:14:47;;;;;;;1.63;1.52;;;;;;;;;;5044144;28;20233;-88
2023/07/06 13:17:16;;;;;;;1.67;1.50;;;;;;;;;;5042990;28;20214;-88
2023/07/06 13:19:43;;;;;;;1.77;1.20;;;;;;;;;;5040734;28;20234;-89
2023/07/06 13:22:11;;;;;;;2.38;1.55;;;;;;;;;;5041004;28;20230;-90
2023/07/06 13:24:40;;;;;;;1.88;1.40;;;;;;;;;;5040980;28;20226;-89
2023/07/06 13:27:07;;;;;;;2.00;1.63;;;;;;;;;;5042063;28;20256;-89
2023/07/06 13:29:36;;;;;;;1.67;1.52;;;;;;;;;;5044046;28;20238;-89
2023/07/06 13:32:04;;;;;;;2.50;1.67;;;;;;;;;;5044281;28;20253;-88
2023/07/06 13:34:32;;;;;;;2.15;1.50;;;;;;;;;;5036173;28;20283;-89
2023/07/06 13:36:59;;;;;;;1.90;1.58;;;;;;;;;;5044635;28;20240;-89
2023/07/06 13:39:27;;;;;;;1.90;1.60;;;;;;;;;;5040527;28;20231;-89
2023/07/06 13:41:54;;;;;;;1.50;1.40;;;;;;;;;;5040942;28;20230;-89
2023/07/06 13:44:21;;;;;;;1.67;1.40;;;;;;;;;;5048310;28;20237;-88
2023/07/06 13:46:48;;;;;;;3.13;1.73;;;;;;;;;;5040679;28;20206;-89
2023/07/06 13:49:17;;;;;;;1.48;1.38;;;;;;;;;;5041539;28;20238;-89
2023/07/06 13:51:44;;;;;;;3.00;1.75;;;;;;;;;;5044516;28;20276;-89
2023/07/06 13:54:12;;;;;;;1.73;1.50;;;;;;;;;;5043697;28;20229;-89
2023/07/06 13:56:42;;;;;;;1.83;1.73;;;;;;;;;;5044152;28;20206;-89
2023/07/06 13:59:09;;;;;;;1.77;1.38;;;;;;;;;;5043468;28;20230;-90
2023/07/06 14:01:36;;;;;;;2.67;1.60;;;;;;;;;;5043719;28;20252;-89
2023/07/06 14:04:04;;;;;;;2.58;1.63;;;;;;;;;;5043367;28;20241;-90
2023/07/06 14:06:33;;;;;;;2.22;1.50;;;;;;;;;;5044223;28;20202;-89
2023/07/06 14:09:00;;;;;;;2.13;1.63;;;;;;;;;;5043242;28;20682;-90
2023/07/06 14:11:27;;;;;;;3.85;1.75;;;;;;;;;;5040590;28;20229;-89
2023/07/06 14:13:54;;;;;;;2.28;1.50;;;;;;;;;;5039948;28;20238;-89
2023/07/06 14:16:22;;;;;;;5.18;1.65;;;;;;;;;;5042655;28;20210;-89
2023/07/06 14:18:49;;;;;;;1.80;1.70;;;;;;;;;;5043256;28;20270;-89
2023/07/06 14:21:21;;;;;;;1.48;1.38;;;;;;;;;;5050402;28;20262;-89
2023/07/06 14:23:51;;;;;;;1.55;1.45;;;;;;;;;;5037806;28;20222;-88
2023/07/06 14:26:18;;;;;;;2.22;2.03;;;;;;;;;;5053064;28;20213;-89
2023/07/06 14:28:49;;;;;;;1.55;1.42;;;;;;;;;;5051757;28;20245;-89
2023/07/06 14:31:17;;;;;;;1.75;1.60;;;;;;;;;;5061230;28;20903;-90
2023/07/06 14:33:44;;;;;;;1.80;1.48;;;;;;;;;;5061665;28;20590;-90
2023/07/06 14:36:11;;;;;;;1.65;1.50;;;;;;;;;;5060926;28;20572;-89
2023/07/06 14:38:38;;;;;;;2.63;1.77;;;;;;;;;;5057755;28;20234;-89
2023/07/06 14:41:07;;;;;;;2.30;1.60;;;;;;;;;;5060118;28;20240;-89
2023/07/06 14:43:34;;;;;;;1.63;1.50;;;;;;;;;;5062315;28;20245;-89
2023/07/06 14:46:02;;;;;;;2.08;1.58;;;;;;;;;;5064399;28;20209;-89
2023/07/06 14:48:29;;;;;;;2.38;1.60;;;;;;;;;;5057742;28;20233;-90
2023/07/06 14:51:02;;;;;;;3.40;1.98;;;;;;;;;;5062897;28;20226;-89
2023/07/06 14:53:30;;;;;;;1.40;1.30;;;;;;;;;;5060193;28;20240;-89
2023/07/06 14:55:57;;;;;;;2.78;1.35;;;;;;;;;;5065405;28;20206;-90